Time;durP1;ratioP1;P1;durP2;ratioP2;P2;SDS_P1;SDS_P2;PMS_P1;PMS_P2;Temp;Humidity;BMP_temperature;BMP_pressure;BME280_temperature;BME280_humidity;BME280_pressure;Samples;Min_cycle;Max_cycle;Signal;HPM_P1;HPM_P2
2022/08/04 00:00:10;;;;;;;4.15;2.40;;;;;22.00;100817.00;;;;5051633;28;20106;-69
2022/08/04 00:03:10;;;;;;;4.93;2.30;;;;;22.10;100826.00;;;;5052319;28;20918;-69
2022/08/04 00:06:02;;;;;;;7.37;2.20;;;;;22.10;100835.00;;;;5046413;28;20221;-71
2022/08/04 00:08:50;;;;;;;5.23;2.20;;;;;22.00;100819.00;;;;5047767;28;20311;-69
2022/08/04 00:11:45;;;;;;;3.43;2.10;;;;;22.00;100820.00;;;;5048691;28;20317;-70
2022/08/04 00:14:35;;;;;;;6.73;2.17;;;;;22.00;100822.00;;;;5040214;28;20206;-69
2022/08/04 00:17:28;;;;;;;7.37;2.33;;;;;22.00;100811.00;;;;5048626;28;20215;-70
2022/08/04 00:20:18;;;;;;;5.30;2.30;;;;;22.10;100816.00;;;;5048152;28;20211;-68
2022/08/04 00:23:06;;;;;;;7.80;2.50;;;;;22.00;100820.00;;;;5048417;28;20707;-69
2022/08/04 00:25:52;;;;;;;4.73;2.27;;;;;21.80;100820.00;;;;5049296;28;20228;-69
2022/08/04 00:28:41;;;;;;;9.23;2.77;;;;;21.80;100818.00;;;;5046978;28;20360;-69
2022/08/04 00:31:28;;;;;;;5.97;2.63;;;;;21.80;100823.00;;;;5043714;28;20215;-69
2022/08/04 00:34:36;;;;;;;3.67;2.60;;;;;21.90;100819.00;;;;5050204;28;20296;-69
2022/08/04 00:37:24;;;;;;;7.30;2.40;;;;;21.90;100803.00;;;;5049308;28;20230;-69
2022/08/04 00:40:22;;;;;;;4.87;2.40;;;;;21.80;100820.00;;;;5047010;28;20707;-69
2022/08/04 00:43:17;;;;;;;6.07;2.03;;;;;21.70;100820.00;;;;5044517;28;20237;-70
2022/08/04 00:46:28;;;;;;;5.53;2.30;;;;;21.70;100822.00;;;;5055153;28;20213;-70
2022/08/04 00:49:32;;;;;;;5.83;2.33;;;;;21.70;100820.00;;;;5047919;28;20208;-69
2022/08/04 00:52:32;;;;;;;7.03;2.43;;;;;21.70;100814.00;;;;5048629;28;20220;-69
2022/08/04 00:55:30;;;;;;;4.07;2.20;;;;;21.80;100812.00;;;;5046398;28;20245;-69
2022/08/04 00:58:29;;;;;;;6.47;2.23;;;;;21.70;100808.00;;;;5045433;28;20261;-69
2022/08/04 01:01:36;;;;;;;3.13;2.10;;;;;21.80;100809.00;;;;5048013;28;20335;-69
2022/08/04 01:04:27;;;;;;;;;;;;;21.70;100810.00;;;;5052976;28;20212;-70
2022/08/04 01:07:18;;;;;;;;;;;;;21.80;100798.00;;;;5046019;28;20164;-69
2022/08/04 01:10:08;;;;;;;;;;;;;21.60;100805.00;;;;5049096;28;20202;-69
2022/08/04 01:13:12;;;;;;;;;;;;;21.60;100796.00;;;;5043862;28;20226;-69
2022/08/04 01:16:04;;;;;;;;;;;;;21.50;100796.00;;;;5047185;28;20538;-68
2022/08/04 01:18:55;;;;;;;;;;;;;21.60;100795.00;;;;5045666;28;20966;-71
2022/08/04 01:22:17;;;;;;;12.75;6.50;;;;;21.60;100794.00;;;;5044858;28;20272;-69
2022/08/04 01:25:27;;;;;;;6.27;2.27;;;;;21.50;100797.00;;;;5041630;28;20278;-70
2022/08/04 01:28:27;;;;;;;;;;;;;21.50;100785.00;;;;5047429;28;20213;-70
2022/08/04 01:31:22;;;;;;;5.63;2.30;;;;;21.50;100783.00;;;;5045447;28;20342;-70
2022/08/04 01:34:12;;;;;;;5.63;2.60;;;;;21.40;100788.00;;;;5042837;28;20704;-69
2022/08/04 01:37:03;;;;;;;5.67;2.30;;;;;21.40;100777.00;;;;5047660;28;20225;-69
2022/08/04 01:39:55;;;;;;;4.87;2.20;;;;;21.30;100772.00;;;;5046826;28;20217;-69
2022/08/04 01:42:44;;;;;;;5.60;2.40;;;;;21.20;100772.00;;;;5046403;28;20638;-70
2022/08/04 01:45:31;;;;;;;7.03;2.93;;;;;21.20;100764.00;;;;5045351;28;20220;-71
2022/08/04 01:48:23;;;;;;;95.00;62.73;;;;;21.30;100765.00;;;;5050235;28;20218;-70
2022/08/04 01:51:10;;;;;;;3.85;2.05;;;;;21.30;100762.00;;;;5055295;28;20208;-69
2022/08/04 01:53:56;;;;;;;4.03;2.23;;;;;21.20;100759.00;;;;5047367;28;20190;-69
2022/08/04 01:56:44;;;;;;;8.43;3.50;;;;;21.20;100767.00;;;;5044999;28;20249;-69
2022/08/04 01:59:34;;;;;;;8.73;2.40;;;;;21.00;100767.00;;;;5047228;28;20302;-69
2022/08/04 02:02:23;;;;;;;4.63;2.47;;;;;21.00;100764.00;;;;5046995;28;20839;-69
2022/08/04 02:05:11;;;;;;;4.63;2.43;;;;;21.00;100751.00;;;;5043322;28;21007;-69
2022/08/04 02:08:14;;;;;;;5.40;2.40;;;;;20.90;100747.00;;;;5047059;28;20206;-70
2022/08/04 02:11:05;;;;;;;3.77;2.00;;;;;20.90;100745.00;;;;5046962;28;20282;-71
2022/08/04 02:13:58;;;;;;;7.17;2.23;;;;;20.90;100749.00;;;;5047890;28;20572;-72
2022/08/04 02:16:47;;;;;;;6.20;2.37;;;;;20.90;100741.00;;;;5044836;28;20729;-69
2022/08/04 02:19:50;;;;;;;3.30;2.47;;;;;20.90;100732.00;;;;5043598;28;20780;-69
2022/08/04 02:22:45;;;;;;;7.60;2.70;;;;;20.90;100735.00;;;;5046985;28;20253;-69
2022/08/04 02:25:39;;;;;;;6.37;2.70;;;;;20.80;100738.00;;;;5046176;28;20319;-69
2022/08/04 02:28:35;;;;;;;7.00;2.20;;;;;20.90;100735.00;;;;5044238;28;20241;-69
2022/08/04 02:31:30;;;;;;;5.07;2.47;;;;;20.80;100726.00;;;;5048855;28;20214;-69
2022/08/04 02:34:25;;;;;;;7.00;2.67;;;;;20.80;100721.00;;;;5048493;28;20220;-69
2022/08/04 02:37:11;;;;;;;5.90;2.30;;;;;20.70;100723.00;;;;5044734;28;20233;-68
2022/08/04 02:40:01;;;;;;;5.43;2.47;;;;;20.80;100724.00;;;;5050702;28;20340;-70
2022/08/04 02:42:49;;;;;;;7.07;2.50;;;;;20.70;100718.00;;;;5048592;28;20240;-70
2022/08/04 02:45:37;;;;;;;5.07;2.30;;;;;20.70;100710.00;;;;5049285;28;20213;-71
2022/08/04 02:48:24;;;;;;;4.63;2.33;;;;;20.70;100713.00;;;;5049134;28;20243;-69
2022/08/04 02:51:19;;;;;;;5.33;2.43;;;;;20.60;100709.00;;;;5045335;28;20333;-69
2022/08/04 02:54:07;;;;;;;5.97;2.53;;;;;20.60;100716.00;;;;5047273;28;20217;-69
2022/08/04 02:56:57;;;;;;;4.23;2.20;;;;;20.60;100709.00;;;;5045803;28;20769;-69
2022/08/04 03:00:03;;;;;;;3.90;2.50;;;;;20.60;100718.00;;;;5046665;28;20237;-69
2022/08/04 03:03:00;;;;;;;7.00;2.57;;;;;20.70;100717.00;;;;5046183;28;20379;-68
2022/08/04 03:06:04;;;;;;;7.73;2.57;;;;;20.70;100709.00;;;;5050427;28;20410;-70
2022/08/04 03:09:38;;;;;;;5.57;2.43;;;;;20.60;100705.00;;;;5055412;28;20208;-69
2022/08/04 03:12:48;;;;;;;4.43;2.20;;;;;20.50;100703.00;;;;4996777;28;20232;-69
2022/08/04 03:16:25;;;;;;;4.67;2.23;;;;;20.60;100696.00;;;;5049038;28;20221;-69
2022/08/04 03:20:03;;;;;;;8.00;2.37;;;;;20.40;100703.00;;;;5007731;28;20238;-70
2022/08/04 03:23:07;;;;;;;6.73;2.37;;;;;20.50;100702.00;;;;5012201;28;20614;-71
2022/08/04 03:26:34;;;;;;;7.50;2.40;;;;;20.40;100694.00;;;;5048472;28;20229;-69
2022/08/04 03:29:49;;;;;;;9.80;2.90;;;;;20.50;100696.00;;;;5048925;28;20209;-69
2022/08/04 03:33:15;;;;;;;2.93;2.40;;;;;20.40;100693.00;;;;5047559;28;20237;-69
2022/08/04 03:36:38;;;;;;;7.63;2.93;;;;;20.30;100695.00;;;;5048189;28;20226;-70
2022/08/04 03:39:57;;;;;;;5.73;2.50;;;;;20.30;100688.00;;;;5048807;28;20208;-71
2022/08/04 03:43:19;;;;;;;5.70;2.47;;;;;20.20;100687.00;;;;5049528;28;20319;-70
2022/08/04 03:46:44;;;;;;;3.97;2.37;;;;;20.30;100688.00;;;;5044732;28;20705;-69
2022/08/04 03:50:11;;;;;;;5.73;2.50;;;;;20.20;100679.00;;;;5045299;28;20328;-68
2022/08/04 03:53:15;;;;;;;4.97;2.53;;;;;20.20;100682.00;;;;4985594;28;20265;-69
2022/08/04 03:56:32;;;;;;;4.13;2.53;;;;;20.10;100688.00;;;;5049233;28;20217;-70
2022/08/04 03:59:32;;;;;;;4.70;2.50;;;;;20.20;100679.00;;;;5043013;28;20221;-69
2022/08/04 04:03:10;;;;;;;5.30;2.60;;;;;20.20;100677.00;;;;5043666;28;20295;-69
2022/08/04 04:06:44;;;;;;;6.00;2.87;;;;;20.20;100676.00;;;;5047856;28;20206;-69
2022/08/04 04:10:10;;;;;;;6.93;2.50;;;;;20.20;100672.00;;;;5044702;28;20633;-68
2022/08/04 04:13:29;;;;;;;7.80;2.83;;;;;20.10;100668.00;;;;5029940;28;20236;-68
2022/08/04 04:16:49;;;;;;;4.90;2.53;;;;;20.20;100667.00;;;;5044551;28;20291;-69
2022/08/04 04:19:59;;;;;;;12.73;3.13;;;;;20.20;100669.00;;;;5048716;28;20216;-68
2022/08/04 04:23:09;;;;;;;7.27;2.70;;;;;20.20;100661.00;;;;5045662;28;20283;-68
2022/08/04 04:26:06;;;;;;;4.13;2.60;;;;;20.20;100658.00;;;;5047184;28;20312;-68
2022/08/04 04:29:08;;;;;;;8.80;2.87;;;;;20.10;100660.00;;;;5047118;28;20689;-68
2022/08/04 04:32:14;;;;;;;5.07;2.90;;;;;20.10;100670.00;;;;5046545;28;20867;-69
2022/08/04 04:35:17;;;;;;;8.17;2.90;;;;;20.20;100659.00;;;;5054345;28;20322;-68
2022/08/04 04:38:21;;;;;;;8.30;2.97;;;;;20.20;100658.00;;;;5045558;28;20600;-69
2022/08/04 04:41:25;;;;;;;7.00;2.90;;;;;20.40;100660.00;;;;5047696;28;20295;-69
2022/08/04 04:44:33;;;;;;;6.17;3.20;;;;;20.40;100663.00;;;;5048692;28;20204;-69
2022/08/04 04:47:36;;;;;;;7.57;2.97;;;;;20.50;100661.00;;;;5047712;28;20604;-68
2022/08/04 04:50:55;;;;;;;6.30;3.17;;;;;20.60;100658.00;;;;5047546;28;20328;-69
2022/08/04 04:53:49;;;;;;;7.80;3.40;;;;;20.70;100658.00;;;;5048312;28;20225;-68
2022/08/04 04:56:51;;;;;;;6.30;2.73;;;;;20.80;100664.00;;;;5045169;28;20224;-69
2022/08/04 04:59:43;;;;;;;6.90;3.07;;;;;20.80;100662.00;;;;5044186;28;20746;-69
2022/08/04 05:02:43;;;;;;;7.90;2.90;;;;;20.90;100659.00;;;;5047928;28;20761;-69
2022/08/04 05:06:11;;;;;;;9.63;3.00;;;;;20.90;100660.00;;;;5046177;28;20208;-69
2022/08/04 05:09:14;;;;;;;7.00;3.47;;;;;21.10;100661.00;;;;5006904;28;20260;-69
2022/08/04 05:12:21;;;;;;;7.67;2.90;;;;;21.10;100666.00;;;;5047538;28;20224;-69
2022/08/04 05:15:31;;;;;;;8.63;3.10;;;;;21.20;100668.00;;;;5046716;28;20599;-69
2022/08/04 05:18:22;;;;;;;6.73;2.90;;;;;21.30;100672.00;;;;5043277;28;20226;-69
2022/08/04 05:21:37;;;;;;;7.23;2.90;;;;;21.40;100672.00;;;;5046942;28;20221;-69
2022/08/04 05:24:26;;;;;;;11.07;2.90;;;;;21.50;100667.00;;;;5041433;28;20233;-69
2022/08/04 05:27:19;;;;;;;9.67;4.10;;;;;21.60;100669.00;;;;5048158;28;20212;-69
2022/08/04 05:30:08;;;;;;;13.20;3.50;;;;;21.70;100666.00;;;;5049636;28;20279;-69
2022/08/04 05:32:59;;;;;;;10.60;3.43;;;;;21.70;100668.00;;;;5047290;28;20235;-69
2022/08/04 05:35:49;;;;;;;7.53;3.70;;;;;21.90;100661.00;;;;5047664;28;20210;-71
2022/08/04 05:38:59;;;;;;;8.33;3.90;;;;;22.10;100656.00;;;;5042247;28;20225;-69
2022/08/04 05:41:47;;;;;;;11.07;4.30;;;;;22.10;100657.00;;;;5043417;28;20230;-70
2022/08/04 05:44:43;;;;;;;9.60;4.30;;;;;22.30;100671.00;;;;5047507;28;20215;-70
2022/08/04 05:47:37;;;;;;;12.80;4.50;;;;;22.20;100669.00;;;;5047180;28;20354;-70
2022/08/04 05:50:24;;;;;;;12.80;5.17;;;;;22.30;100662.00;;;;5047364;28;20202;-70
2022/08/04 05:53:13;;;;;;;10.57;4.57;;;;;22.40;100666.00;;;;5041927;28;20732;-70
2022/08/04 05:56:01;;;;;;;10.63;3.57;;;;;22.50;100668.00;;;;5045424;28;20584;-70
2022/08/04 05:58:48;;;;;;;8.23;3.90;;;;;22.60;100663.00;;;;5046620;28;20236;-70
2022/08/04 06:01:37;;;;;;;11.90;3.90;;;;;22.70;100663.00;;;;5044688;28;20589;-69
2022/08/04 06:04:45;;;;;;;12.43;4.20;;;;;22.70;100660.00;;;;5043482;28;20335;-70
2022/08/04 06:07:31;;;;;;;11.97;4.17;;;;;22.80;100673.00;;;;5041933;28;20762;-69
2022/08/04 06:10:18;;;;;;;9.43;3.70;;;;;22.90;100666.00;;;;5045980;28;20207;-70
2022/08/04 06:13:18;;;;;;;7.73;3.70;;;;;23.00;100657.00;;;;5041310;28;20235;-69
2022/08/04 06:16:29;;;;;;;8.90;4.00;;;;;23.00;100660.00;;;;5042876;28;20212;-70
2022/08/04 06:19:18;;;;;;;7.20;3.87;;;;;23.00;100657.00;;;;5039394;28;20228;-70
2022/08/04 06:22:27;;;;;;;8.33;3.40;;;;;23.10;100660.00;;;;5040531;28;20232;-70
2022/08/04 06:25:19;;;;;;;11.33;3.90;;;;;23.10;100663.00;;;;5047013;28;20217;-69
2022/08/04 06:28:06;;;;;;;6.30;3.60;;;;;23.10;100658.00;;;;5046689;28;20268;-70
2022/08/04 06:30:54;;;;;;;10.83;3.83;;;;;23.20;100658.00;;;;5047160;28;20744;-69
2022/08/04 06:33:40;;;;;;;8.67;3.90;;;;;23.20;100653.00;;;;5047428;28;20232;-70
2022/08/04 06:36:42;;;;;;;11.87;3.63;;;;;23.20;100653.00;;;;5044740;28;20213;-70
2022/08/04 06:39:30;;;;;;;13.60;3.83;;;;;23.40;100649.00;;;;5049077;28;20228;-70
2022/08/04 06:42:20;;;;;;;10.53;3.80;;;;;23.50;100651.00;;;;5046709;28;21352;-70
2022/08/04 06:45:10;;;;;;;8.83;3.97;;;;;23.50;100656.00;;;;5050561;28;20289;-70
2022/08/04 06:47:59;;;;;;;7.00;3.70;;;;;23.60;100659.00;;;;5050151;28;20213;-71
2022/08/04 06:50:49;;;;;;;12.80;4.97;;;;;23.70;100656.00;;;;5050503;28;20689;-71
2022/08/04 06:53:57;;;;;;;8.47;4.40;;;;;23.80;100655.00;;;;5049967;28;20205;-71
2022/08/04 06:56:44;;;;;;;9.90;3.97;;;;;23.90;100654.00;;;;5050770;28;20684;-70
2022/08/04 06:59:30;;;;;;;10.87;4.33;;;;;23.90;100656.00;;;;5049841;28;20724;-69
2022/08/04 07:02:20;;;;;;;10.00;4.00;;;;;24.00;100655.00;;;;5047452;28;20229;-70
2022/08/04 07:05:07;;;;;;;12.63;3.80;;;;;24.10;100643.00;;;;5050305;28;20217;-70
2022/08/04 07:07:55;;;;;;;9.70;3.67;;;;;24.10;100650.00;;;;5050138;28;20299;-70
2022/08/04 07:10:45;;;;;;;9.43;3.33;;;;;24.10;100643.00;;;;5050450;28;20279;-71
2022/08/04 07:13:32;;;;;;;8.40;3.30;;;;;24.10;100648.00;;;;5046804;28;20229;-71
2022/08/04 07:16:21;;;;;;;7.30;4.00;;;;;24.20;100638.00;;;;5050425;28;20252;-72
2022/08/04 07:19:16;;;;;;;7.47;3.40;;;;;24.30;100638.00;;;;5045117;28;20766;-70
2022/08/04 07:22:07;;;;;;;8.93;3.60;;;;;24.40;100644.00;;;;5049838;28;20267;-70
2022/08/04 07:25:12;;;;;;;5.70;3.07;;;;;24.50;100644.00;;;;5049030;28;21825;-72
2022/08/04 07:27:59;;;;;;;8.60;3.57;;;;;24.60;100643.00;;;;5048007;28;20229;-70
2022/08/04 07:30:47;;;;;;;7.57;3.67;;;;;24.60;100643.00;;;;5047782;28;20208;-71
2022/08/04 07:33:34;;;;;;;15.87;3.60;;;;;24.70;100646.00;;;;5050225;28;20255;-70
2022/08/04 07:36:20;;;;;;;8.27;3.50;;;;;24.70;100658.00;;;;5049870;28;20208;-70
2022/08/04 07:39:15;;;;;;;7.17;3.77;;;;;24.80;100646.00;;;;5046734;28;20225;-72
2022/08/04 07:42:14;;;;;;;7.80;3.40;;;;;24.80;100648.00;;;;5049470;28;20769;-70
2022/08/04 07:45:02;;;;;;;6.37;3.40;;;;;24.90;100649.00;;;;5047328;28;20418;-70
2022/08/04 07:47:50;;;;;;;7.03;3.20;;;;;25.10;100652.00;;;;5048417;28;20682;-70
2022/08/04 07:50:51;;;;;;;8.57;3.37;;;;;25.30;100643.00;;;;5047415;28;20216;-71
2022/08/04 07:53:39;;;;;;;17.50;11.57;;;;;25.50;100642.00;;;;5046701;28;20275;-72
2022/08/04 07:56:41;;;;;;;9.70;5.93;;;;;25.60;100641.00;;;;5049802;28;20389;-72
2022/08/04 07:59:28;;;;;;;7.50;3.73;;;;;25.70;100640.00;;;;5053211;28;20233;-73
2022/08/04 08:02:18;;;;;;;10.17;3.40;;;;;25.80;100639.00;;;;5053235;28;20319;-72
2022/08/04 08:05:07;;;;;;;7.50;3.20;;;;;25.90;100644.00;;;;5050481;28;20217;-71
2022/08/04 08:07:55;;;;;;;6.47;3.17;;;;;26.10;100648.00;;;;5045558;28;20260;-71
2022/08/04 08:10:46;;;;;;;5.93;3.20;;;;;26.10;100639.00;;;;5048671;28;20240;-74
2022/08/04 08:13:33;;;;;;;5.13;3.23;;;;;26.20;100638.00;;;;5050242;28;20232;-68
2022/08/04 08:16:22;;;;;;;11.03;3.40;;;;;26.40;100638.00;;;;5047726;28;20212;-70
2022/08/04 08:19:13;;;;;;;5.27;3.37;;;;;26.60;100636.00;;;;5052248;28;20310;-70
2022/08/04 08:22:00;;;;;;;8.20;3.90;;;;;26.80;100639.00;;;;5050632;28;20229;-71
2022/08/04 08:24:47;;;;;;;8.73;3.77;;;;;27.00;100649.00;;;;5049619;28;20221;-69
2022/08/04 08:27:34;;;;;;;7.40;4.37;;;;;27.10;100642.00;;;;5048082;28;20213;-71
2022/08/04 08:30:22;;;;;;;5.93;3.30;;;;;27.20;100655.00;;;;5051317;28;20200;-71
2022/08/04 08:33:12;;;;;;;12.50;3.50;;;;;27.40;100653.00;;;;5048387;28;20786;-71
2022/08/04 08:36:07;;;;;;;7.95;3.40;;;;;27.70;100645.00;;;;5048169;28;20303;-71
2022/08/04 08:39:01;;;;;;;8.45;3.38;;;;;27.80;100640.00;;;;5041160;28;20663;-71
2022/08/04 08:42:14;;;;;;;6.35;3.38;;;;;28.10;100649.00;;;;5043457;28;20232;-71
2022/08/04 08:45:29;;;;;;;13.82;3.83;;;;;28.20;100641.00;;;;5050652;28;20215;-70
2022/08/04 08:48:45;;;;;;;7.22;3.55;;;;;28.40;100633.00;;;;5049661;28;20209;-71
2022/08/04 08:51:58;;;;;;;7.45;3.33;;;;;28.40;100646.00;;;;5054740;28;20212;-70
2022/08/04 08:55:18;;;;;;;11.45;3.75;;;;;28.80;100640.00;;;;5047153;28;20610;-71
2022/08/04 08:58:21;;;;;;;7.22;3.10;;;;;28.90;100634.00;;;;5051228;28;20216;-71
2022/08/04 09:01:18;;;;;;;11.73;3.60;;;;;29.10;100632.00;;;;5048541;28;20307;-70
2022/08/04 09:04:29;;;;;;;7.78;3.72;;;;;29.30;100633.00;;;;5049222;28;20216;-71
2022/08/04 09:07:35;;;;;;;7.88;3.28;;;;;29.40;100644.00;;;;5050254;28;20212;-71
2022/08/04 09:10:26;;;;;;;5.55;3.13;;;;;29.60;100639.00;;;;5049271;28;20216;-70
2022/08/04 09:13:25;;;;;;;8.27;3.38;;;;;29.70;100633.00;;;;5053617;28;20232;-72
2022/08/04 09:16:17;;;;;;;10.75;3.17;;;;;29.90;100640.00;;;;5047481;28;20231;-70
2022/08/04 09:19:10;;;;;;;9.02;3.50;;;;;30.20;100641.00;;;;5054148;28;20236;-72
2022/08/04 09:22:22;;;;;;;9.02;3.28;;;;;30.20;100642.00;;;;5046218;28;20246;-73
2022/08/04 09:25:17;;;;;;;10.00;3.40;;;;;30.50;100640.00;;;;5045847;28;20217;-71
2022/08/04 09:28:09;;;;;;;8.02;3.30;;;;;30.50;100643.00;;;;5047107;28;20736;-71
2022/08/04 09:31:03;;;;;;;7.97;3.47;;;;;30.80;100651.00;;;;5047438;28;20305;-71
2022/08/04 09:34:01;;;;;;;6.65;3.05;;;;;31.20;100649.00;;;;5047598;28;20200;-72
2022/08/04 09:36:53;;;;;;;5.35;3.05;;;;;31.10;100648.00;;;;5046090;28;20801;-69
2022/08/04 09:39:50;;;;;;;6.80;3.15;;;;;30.90;100650.00;;;;5052601;28;20224;-72
2022/08/04 09:42:49;;;;;;;5.55;3.13;;;;;30.70;100648.00;;;;5045825;28;20372;-71
2022/08/04 09:45:40;;;;;;;10.48;3.30;;;;;30.90;100646.00;;;;5046458;28;20584;-71
2022/08/04 09:48:35;;;;;;;8.32;3.30;;;;;31.20;100650.00;;;;5050345;28;20209;-72
2022/08/04 09:51:33;;;;;;;6.07;3.45;;;;;31.40;100651.00;;;;5047281;28;20233;-71
2022/08/04 09:54:49;;;;;;;10.93;3.20;;;;;31.50;100655.00;;;;5047964;28;20205;-71
2022/08/04 09:57:49;;;;;;;5.38;2.83;;;;;31.40;100663.00;;;;5040906;28;20694;-70
2022/08/04 10:00:43;;;;;;;5.45;3.00;;;;;31.30;100662.00;;;;5047034;28;20291;-71
2022/08/04 10:03:35;;;;;;;5.82;2.65;;;;;31.10;100658.00;;;;5045871;28;20232;-71
2022/08/04 10:06:35;;;;;;;9.95;3.13;;;;;30.90;100663.00;;;;5046959;28;20209;-70
2022/08/04 10:09:33;;;;;;;4.10;3.17;;;;;30.70;100663.00;;;;5046847;28;20212;-71
2022/08/04 10:12:30;;;;;;;6.18;3.13;;;;;30.60;100664.00;;;;5049170;28;20232;-69
2022/08/04 10:15:24;;;;;;;6.93;2.88;;;;;30.60;100666.00;;;;5047498;28;20220;-70
2022/08/04 10:18:21;;;;;;;6.45;3.30;;;;;30.90;100669.00;;;;5050773;28;20750;-70
2022/08/04 10:21:13;;;;;;;7.95;3.20;;;;;31.30;100671.00;;;;5052554;28;20257;-71
2022/08/04 10:24:15;;;;;;;6.75;3.30;;;;;31.50;100674.00;;;;5047617;28;20208;-72
2022/08/04 10:27:09;;;;;;;7.03;3.10;;;;;31.30;100676.00;;;;5047691;28;20232;-73
2022/08/04 10:30:02;;;;;;;10.07;3.15;;;;;31.40;100671.00;;;;5050089;28;20216;-71
2022/08/04 10:32:58;;;;;;;9.82;3.53;;;;;31.50;100679.00;;;;5049902;28;20228;-71
2022/08/04 10:35:48;;;;;;;6.43;3.28;;;;;31.90;100684.00;;;;5050842;28;20347;-70
2022/08/04 10:38:40;;;;;;;9.88;3.25;;;;;32.30;100687.00;;;;5047264;28;20216;-69
2022/08/04 10:41:33;;;;;;;6.00;2.90;;;;;32.50;100680.00;;;;5051272;28;20323;-71
2022/08/04 10:44:26;;;;;;;7.25;2.90;;;;;32.80;100682.00;;;;5051224;28;20212;-71
2022/08/04 10:47:17;;;;;;;8.45;2.50;;;;;32.90;100679.00;;;;5051579;28;20217;-71
2022/08/04 10:50:10;;;;;;;3.88;2.50;;;;;33.00;100688.00;;;;5055950;28;20213;-72
2022/08/04 10:53:02;;;;;;;7.45;2.80;;;;;33.30;100681.00;;;;5049912;28;20235;-73
2022/08/04 10:55:56;;;;;;;6.95;2.60;;;;;33.40;100683.00;;;;5049382;28;20273;-73
2022/08/04 10:58:59;;;;;;;3.53;2.60;;;;;33.50;100685.00;;;;5047843;28;20693;-71
2022/08/04 11:01:49;;;;;;;2.75;2.55;;;;;33.60;100693.00;;;;5050818;28;20815;-71
2022/08/04 11:04:53;;;;;;;2.97;2.65;;;;;33.50;100686.00;;;;5050619;28;20340;-71
2022/08/04 11:07:45;;;;;;;5.72;2.97;;;;;33.70;100681.00;;;;5050598;28;20205;-72
2022/08/04 11:10:37;;;;;;;4.65;3.22;;;;;33.70;100685.00;;;;5046390;28;20284;-71
2022/08/04 11:13:25;;;;;;;5.82;3.03;;;;;33.70;100691.00;;;;5049905;28;20228;-73
2022/08/04 11:16:20;;;;;;;6.55;3.05;;;;;33.70;100688.00;;;;5047863;28;20216;-71
2022/08/04 11:19:19;;;;;;;4.65;2.90;;;;;33.90;100697.00;;;;5049628;28;20209;-71
2022/08/04 11:22:09;;;;;;;6.53;3.00;;;;;33.60;100706.00;;;;5048794;28;21599;-73
2022/08/04 11:25:09;;;;;;;5.68;2.88;;;;;33.50;100699.00;;;;5049871;28;20217;-73
2022/08/04 11:28:05;;;;;;;4.60;2.72;;;;;33.60;100691.00;;;;5049733;28;20217;-72
2022/08/04 11:30:56;;;;;;;3.83;2.90;;;;;33.50;100704.00;;;;5045141;28;20251;-72
2022/08/04 11:33:49;;;;;;;4.30;2.17;;;;;33.70;100699.00;;;;5049809;28;20237;-73
2022/08/04 11:36:49;;;;;;;7.47;2.70;;;;;34.30;100708.00;;;;5042422;28;20585;-71
2022/08/04 11:39:37;;;;;;;5.85;2.90;;;;;34.70;100707.00;;;;5043390;28;20471;-71
2022/08/04 11:42:27;;;;;;;5.35;2.30;;;;;34.50;100713.00;;;;5048747;28;20236;-72
2022/08/04 11:45:17;;;;;;;4.30;2.50;;;;;33.90;100725.00;;;;5050044;28;20217;-71
2022/08/04 11:48:09;;;;;;;4.63;2.92;;;;;33.60;100725.00;;;;5049031;28;20213;-71
2022/08/04 11:51:01;;;;;;;3.85;2.50;;;;;33.20;100722.00;;;;5049133;28;20209;-71
2022/08/04 11:53:51;;;;;;;3.42;2.90;;;;;32.90;100729.00;;;;5043883;28;20355;-72
2022/08/04 11:56:38;;;;;;;8.68;2.70;;;;;32.80;100737.00;;;;5042053;28;20684;-73
2022/08/04 11:59:27;;;;;;;5.07;2.35;;;;;32.80;100745.00;;;;5047103;28;20216;-73
2022/08/04 12:02:36;;;;;;;5.20;2.20;;;;;32.90;100754.00;;;;5048548;28;20368;-74
2022/08/04 12:05:30;;;;;;;6.80;2.40;;;;;32.80;100758.00;;;;5049502;28;20717;-71
2022/08/04 12:08:44;;;;;;;5.10;2.50;;;;;32.90;100773.00;;;;5048436;28;20747;-70
2022/08/04 12:11:56;;;;;;;7.53;2.88;;;;;32.50;100782.00;;;;5050156;28;20212;-73
2022/08/04 12:14:55;;;;;;;7.88;2.70;;;;;32.10;100780.00;;;;5048691;28;20224;-71
2022/08/04 12:17:46;;;;;;;9.95;5.35;;;;;31.90;100778.00;;;;5047501;28;20221;-71
2022/08/04 12:20:43;;;;;;;11.32;3.50;;;;;31.50;100790.00;;;;5045043;28;20241;-73
2022/08/04 12:23:35;;;;;;;4.72;2.55;;;;;31.20;100792.00;;;;5048552;28;20804;-71
2022/08/04 12:26:32;;;;;;;7.80;2.90;;;;;30.90;100790.00;;;;5052229;28;20209;-74
2022/08/04 12:29:22;;;;;;;3.72;2.40;;;;;30.70;100787.00;;;;5046224;28;20339;-71
2022/08/04 12:32:19;;;;;;;5.72;2.60;;;;;30.50;100785.00;;;;5050566;28;20266;-73
2022/08/04 12:35:13;;;;;;;5.43;2.63;;;;;30.40;100783.00;;;;5048442;28;20212;-75
2022/08/04 12:38:04;;;;;;;5.53;2.83;;;;;30.40;100784.00;;;;5051868;28;20209;-72
2022/08/04 12:40:53;;;;;;;3.60;2.50;;;;;30.60;100788.00;;;;5046730;28;20271;-71
2022/08/04 12:43:42;;;;;;;5.03;2.70;;;;;30.70;100786.00;;;;5047612;28;20385;-72
2022/08/04 12:46:30;;;;;;;5.70;2.83;;;;;30.80;100782.00;;;;5047024;28;20216;-70
2022/08/04 12:49:19;;;;;;;4.80;2.88;;;;;30.60;100796.00;;;;5045469;28;20205;-72
2022/08/04 12:52:06;;;;;;;8.27;3.22;;;;;30.30;100794.00;;;;5043015;28;20244;-72
2022/08/04 12:54:56;;;;;;;4.38;3.58;;;;;30.10;100788.00;;;;5047637;28;20696;-72
2022/08/04 12:57:43;;;;;;;7.43;3.10;;;;;29.90;100783.00;;;;5042672;28;20205;-74
2022/08/04 13:00:34;;;;;;;6.53;3.35;;;;;30.00;100784.00;;;;5047283;28;23244;-71
2022/08/04 13:03:29;;;;;;;5.30;3.00;;;;;29.90;100781.00;;;;5051110;28;20759;-71
2022/08/04 13:06:24;;;;;;;58.13;30.10;;;;;29.90;100779.00;;;;5048201;28;20221;-70
2022/08/04 13:09:17;;;;;;;6.53;3.00;;;;;29.90;100774.00;;;;5052781;28;20241;-72
2022/08/04 13:12:12;;;;;;;8.32;2.75;;;;;30.00;100778.00;;;;5047452;28;20278;-70
2022/08/04 13:15:08;;;;;;;3.78;2.78;;;;;30.00;100782.00;;;;5047145;28;20206;-70
2022/08/04 13:17:59;;;;;;;7.90;3.20;;;;;29.90;100778.00;;;;5045831;28;20232;-73
2022/08/04 13:20:46;;;;;;;5.93;3.10;;;;;30.00;100777.00;;;;5047863;28;20283;-70
2022/08/04 13:23:34;;;;;;;5.38;3.13;;;;;30.00;100767.00;;;;5046654;28;20732;-71
2022/08/04 13:26:53;;;;;;;5.45;3.55;;;;;30.00;100773.00;;;;5047770;28;20359;-71
2022/08/04 13:29:44;;;;;;;4.22;2.78;;;;;30.10;100766.00;;;;5047822;28;20224;-70
2022/08/04 13:32:53;;;;;;;6.30;2.80;;;;;30.00;100773.00;;;;5046440;28;20300;-71
2022/08/04 13:35:44;;;;;;;5.40;2.70;;;;;30.00;100766.00;;;;5043064;28;20236;-71
2022/08/04 13:38:49;;;;;;;6.57;2.85;;;;;30.00;100759.00;;;;5041628;28;20209;-70
2022/08/04 13:41:38;;;;;;;5.15;2.88;;;;;29.70;100765.00;;;;5047609;28;20231;-71
2022/08/04 13:44:30;;;;;;;4.95;2.97;;;;;29.80;100756.00;;;;5047507;28;20700;-71
2022/08/04 13:47:21;;;;;;;5.43;2.80;;;;;29.90;100759.00;;;;5046394;28;20236;-71
2022/08/04 13:50:15;;;;;;;4.55;2.70;;;;;30.00;100757.00;;;;5048034;28;20275;-73
2022/08/04 13:53:02;;;;;;;6.57;2.80;;;;;30.10;100744.00;;;;5045928;28;20259;-71
2022/08/04 13:55:50;;;;;;;7.72;2.58;;;;;30.30;100759.00;;;;5046896;28;20996;-70
2022/08/04 13:58:47;;;;;;;3.60;3.17;;;;;30.30;100751.00;;;;5044370;28;20213;-71
2022/08/04 14:01:36;;;;;;;9.45;2.75;;;;;30.60;100746.00;;;;5046557;28;20343;-72
2022/08/04 14:04:25;;;;;;;8.30;4.50;;;;;31.00;100744.00;;;;5045013;28;20213;-71
2022/08/04 14:07:15;;;;;;;7.20;3.70;;;;;31.10;100756.00;;;;5047022;28;20216;-69
2022/08/04 14:10:10;;;;;;;3.92;2.60;;;;;31.30;100749.00;;;;5043130;28;20302;-70
2022/08/04 14:12:58;;;;;;;4.15;2.58;;;;;31.60;100742.00;;;;5041763;28;20645;-70
2022/08/04 14:15:47;;;;;;;5.50;2.40;;;;;31.60;100752.00;;;;5046536;28;20213;-70
2022/08/04 14:18:58;;;;;;;110.30;55.50;;;;;31.80;100743.00;;;;5042751;28;20217;-69
2022/08/04 14:21:44;;;;;;;3.22;2.40;;;;;31.50;100750.00;;;;5045046;28;20650;-70
2022/08/04 14:24:31;;;;;;;8.88;2.50;;;;;31.30;100749.00;;;;5046163;28;20301;-73
2022/08/04 14:27:17;;;;;;;3.20;2.72;;;;;31.10;100749.00;;;;5043426;28;20216;-70
2022/08/04 14:30:05;;;;;;;3.58;2.67;;;;;31.20;100752.00;;;;5049465;28;20216;-70
2022/08/04 14:32:56;;;;;;;6.55;2.78;;;;;32.20;100746.00;;;;5045968;28;20310;-69